Aérodrome :
LOGIN :

S'inscrire | Disclaimer

   EN    FR    IT 

 










Légende :    VFR   VFR Marginal   IFR   IFR Intensif   IFR Très Intensif
Visi : 
Plafond : 
>= 8 km
>= 3000ft
5 à 8 km
1000 à 3000 ft
1500m à 5 km
500 à 1000 ft
800 à 1500m
200 à 500 ft
< 800m
< 200 ft
Symboles :   Orages  Brouillard  Fortes neiges  Fortes précipitations  Vent > 20 kt
SIGMETs :   Divers  Orages  Givrage  Turbulence  Onde Orograph.  Cendres Volcan.







- Altitude de l'aérodrome : 299 ft
- Code IATA : EDM
- Voir les cartes d'approche


LFRI - La Roche Sur Yon - Les Ajoncs

DERNIER METAR :
  • 221230Z AUTO 03016KT 9000 NSC 19/10 Q1030 TEMPO 03017G27KT

METARs EXPIRÉS :
  • 221200Z AUTO 03016KT 9000 NSC 19/10 Q1030 TEMPO 03017G27KT
  • 221130Z AUTO 02014KT 9000 FEW026 18/11 Q1030 TEMPO 03017G27KT
  • 221100Z AUTO 03016KT 9000 FEW022 17/11 Q1030 TEMPO BKN008
  • 221030Z AUTO 03013KT 360V060 9000 SCT017 16/12 Q1030 TEMPO BKN008
  • 221000Z AUTO 03013KT 9999 BKN014 15/12 Q1030 TEMPO BKN008

TAF TAF LFRI
Valide du 22 à 12h jusqu'au 23 à 12h UTC


221100Z 2212/2312 03013KT 9999 SCT020
TEMPO 2213/2223 03017G27KT
Pas de NOTAMs connus pour ce terrain.



MET'MAP, la Météo Aéronautique d'un coup d'oeil ! - Copyright ORBIFLY Décembre 2007 - Disclaimer

ORBIFLY MET'MAP TEAM :

Programmation & Développement : Alexandra Zaïnal
Conception & Développement : Baudouin d'Aumeries
Co-Programmation & Développement : Marc-Olivier Méhu
Soutien technique & logistique : Manuel Goepfert

Contact : metmap@orbifly.com




SOURCES & CREDITS :

   NOAA